FFU weather

FutaleufĂș Airport
Futaleufu, Los Lagos Region, Chile

Public forecast

Using degrees Celsius for public forecast. Weather courtesy of forecast.io.

METAR (pilot weather report)

Retrieved 2019/04/22 20:00 UTC (26 minutes ago):

SCFT 222000Z 30005KT 260V320 CAVOK 13/07 Q1018

TAF (pilot weather forecast)

Forecast is more than 12 hours old.

Closest forecast is Brigadier Antonio Parodi Airport, 35.5 nm (65.7 km) ENE. Retrieved 2019/04/15 06:04 UTC (8 days ago):

TAF SAVE 150500Z 1506/1606 27010KT 9999 SCT030 TX12/1518Z TNM01/1510Z BECMG 1518/1520 29010KT